Telluride, CO

8:06 PM MST on December 17, 2014 (GMT -0700)
Durango-La Plata County | Change Station
CLOSE
Current Station
Airport
Location: Durango,
Elevation: 6683 ft
Nearby Weather Stations
Active Advisory: Winter Weather Advisory Active Notice: Public Information Statement

Elev 6683 ft 37.14 °N, 107.76 °W | Updated 13 minutes ago

Overcast
Overcast
31 °F
Feels Like 24 °F
N
7
Wind Variable Wind from SW

Today
High -- | Low -- °F
--% Chance of Precip.
Yesterday
High -- | Low -- °F
Precip. -- in
7:21 AM 4:53 PM
Waning Crescent, 18% visible
Pressure 30.08 in
Visibility 6.0 miles
Clouds Overcast 3800 ft
Windchill 24 °F
Dew Point 30 °F
Humidity 96%
Rainfall 0.01 in
Snow Depth Not available.
UV 0 out of 12
Pollen .10 out of 12
Air Quality Not available.
Flu Activity Not available.
METAR KDRO 180253Z AUTO 23006KT 6SM -SN BR OVC038 M01/M01 A3002 RMK AO2 SNB18 SLP186 P0000 60001 T10061011 51013

More Conditions Fewer Conditions

Pressure 30.08 in
Visibility 6.0 miles
Clouds Overcast 3800 ft
Windchill 24 °F
Dew Point 30 °F
Humidity 96%
Rainfall 0.01 in
Snow Depth Not available.
UV 0 out of 12
Pollen .10 out of 12
Air Quality Not available.
Flu Activity Not available.
METAR KDRO 180253Z AUTO 23006KT 6SM -SN BR OVC038 M01/M01 A3002 RMK AO2 SNB18 SLP186 P0000 60001 T10061011 51013

More Conditions Fewer Conditions

10-Day Weather Forecast

Almanac

Astronomy

Dec. 17, 2014 Rise Set
Actual Time
Civil Twilight
Nautical Twilight
Astronomical Twilight
Moon
Length of Visible Light
Length of Day
Tomorrow will be .
, % of the Moon is Illuminated

Today's Extremes

State Highs State Lows

Community

WunderPhotos

Upload Photos

1,778,872 photos uploaded!

WunderBlogs® & News

Nearby

Air Quality

  Air Quality AQ Index Pollutant
Not available.

Snow Depth

Station Depth Elevation

Earthquake Activity

City Distance Mag. Time & Date
Minimum magnitude displayed is 2.5.

Coastal Water Temperatures

Place Temperature

Nearby Weather Stations